Terminal Aerodrome Forecast
Issued by NWS

Home | Current Version | Previous Version | Text Only | Print | Product List | Glossary On
Versions: 1 2 3 4 5 6 7 8 9 10 11 12 13 14 15 16 17
000
FTUS44 KBMX 221131
TAFTCL
TAF
KTCL 221131Z 2212/2312 12012KT 6SM -RA SCT004 OVC012 WS020/16041KT
      TEMPO 2212/2216 2SM RA BKN008 OVC012
     FM221600 14007G18KT 6SM -RA BKN009 OVC012
     FM221900 15010G18KT 6SM -RA SCT012 OVC025
     FM230000 16008KT P6SM VCSH SCT025 OVC050=

USA.gov is the U.S. government's official web portal to all federal, state and local government web resources and services.